createdAt,value
2023-03-30T00:01:14.864Z,51.23
2023-03-30T00:03:45.445Z,51.12
2023-03-30T00:06:15.356Z,51.39
2023-03-30T00:08:41.983Z,51.29
2023-03-30T00:11:15.755Z,51.62
2023-03-30T00:13:43.257Z,51.65
2023-03-30T00:16:12.788Z,51.26
2023-03-30T00:18:39.919Z,51.88
2023-03-30T00:21:11.223Z,52.26
2023-03-30T00:23:39.279Z,52.86
2023-03-30T00:26:07.601Z,52.95
2023-03-30T00:28:34.800Z,52.49
2023-03-30T00:31:02.314Z,53.67
2023-03-30T00:33:43.894Z,54.41
2023-03-30T00:36:12.497Z,54.99
2023-03-30T00:38:39.444Z,56.40
2023-03-30T00:41:07.229Z,57.71
2023-03-30T00:43:34.083Z,58.57
2023-03-30T00:46:01.315Z,59.27
2023-03-30T00:48:32.324Z,60.65
2023-03-30T00:51:07.552Z,61.55
2023-03-30T00:53:37.586Z,62.49
2023-03-30T00:56:07.631Z,62.92
2023-03-30T00:58:36.020Z,63.46
2023-03-30T01:01:06.914Z,63.54
2023-03-30T01:03:43.647Z,63.21
2023-03-30T01:06:12.100Z,62.00
2023-03-30T01:08:41.086Z,62.42
2023-03-30T01:11:08.256Z,64.50
2023-03-30T01:13:38.923Z,65.08
2023-03-30T01:16:31.877Z,65.90
2023-03-30T01:19:26.522Z,66.51
2023-03-30T01:21:59.059Z,65.51
2023-03-30T01:25:03.342Z,65.32
2023-03-30T01:27:32.907Z,66.02
2023-03-30T01:30:37.613Z,65.48
2023-03-30T01:33:18.848Z,65.83
2023-03-30T01:36:10.299Z,66.28
2023-03-30T01:38:39.764Z,66.34
2023-03-30T01:41:38.330Z,67.31
2023-03-30T01:44:22.057Z,69.59
2023-03-30T01:46:55.560Z,70.24
2023-03-30T01:49:42.943Z,70.75
2023-03-30T01:52:22.514Z,72.06
2023-03-30T01:54:56.856Z,72.00
2023-03-30T01:58:06.393Z,72.31
2023-03-30T02:00:36.437Z,72.39
2023-03-30T02:03:11.632Z,73.78
2023-03-30T02:05:40.071Z,73.76
2023-03-30T02:08:11.616Z,74.68
2023-03-30T02:10:39.492Z,76.64
2023-03-30T02:13:07.648Z,76.11
2023-03-30T02:15:45.966Z,76.76
2023-03-30T02:18:12.665Z,76.99
2023-03-30T02:20:39.825Z,77.88
2023-03-30T02:23:07.576Z,77.95
2023-03-30T02:25:38.616Z,78.40
2023-03-30T02:28:07.638Z,80.04
2023-03-30T02:30:35.997Z,80.10
2023-03-30T02:33:03.836Z,80.88
2023-03-30T02:35:58.568Z,81.47
2023-03-30T02:38:49.860Z,81.96
2023-03-30T02:41:59.411Z,83.11
2023-03-30T02:44:50.312Z,83.74
2023-03-30T02:47:29.165Z,84.69
2023-03-30T02:50:25.786Z,85.07
2023-03-30T02:53:10.446Z,85.91
2023-03-30T02:56:03.862Z,86.92
2023-03-30T02:58:33.111Z,86.97
2023-03-30T03:01:34.744Z,89.10
2023-03-30T03:04:03.361Z,91.17
2023-03-30T03:06:32.298Z,92.34
2023-03-30T03:08:59.681Z,92.95
2023-03-30T03:11:27.175Z,95.51
2023-03-30T03:13:53.906Z,97.68
2023-03-30T03:16:20.615Z,99.16
2023-03-30T03:18:47.933Z,99.90
2023-03-30T03:21:14.611Z,100.00
2023-03-30T03:23:41.340Z,100.00
2023-03-30T03:26:09.326Z,100.00
2023-03-30T03:28:36.480Z,100.00
2023-03-30T03:31:03.587Z,100.00
2023-03-30T03:33:32.011Z,100.00
2023-03-30T03:36:00.555Z,100.00
2023-03-30T03:38:28.432Z,100.00
2023-03-30T03:40:57.445Z,100.00
2023-03-30T03:43:24.165Z,100.00
2023-03-30T03:45:52.089Z,100.00
2023-03-30T03:48:21.434Z,100.00
2023-03-30T03:50:56.645Z,100.00
2023-03-30T03:53:25.944Z,100.00
2023-03-30T03:55:52.623Z,100.00
2023-03-30T03:58:19.338Z,100.00
2023-03-30T04:00:46.388Z,100.00
2023-03-30T04:03:13.759Z,100.00
2023-03-30T04:05:41.816Z,100.00
2023-03-30T04:08:12.806Z,100.00
2023-03-30T04:10:40.956Z,100.00
2023-03-30T04:13:07.723Z,100.00
2023-03-30T04:15:34.352Z,100.00
2023-03-30T04:18:01.795Z,100.00
2023-03-30T04:20:30.109Z,100.00
2023-03-30T04:22:57.290Z,100.00
2023-03-30T04:25:29.100Z,100.00
2023-03-30T04:27:57.312Z,100.00
2023-03-30T04:30:24.956Z,100.00
2023-03-30T04:33:02.951Z,100.00
2023-03-30T04:35:33.908Z,100.00
2023-03-30T04:38:02.285Z,100.00
2023-03-30T04:40:29.596Z,100.00
2023-03-30T04:43:02.282Z,100.00
2023-03-30T04:45:30.361Z,100.00
2023-03-30T04:47:57.164Z,100.00
2023-03-30T04:50:23.965Z,100.00
2023-03-30T04:52:50.708Z,100.00
2023-03-30T04:55:17.322Z,100.00
2023-03-30T04:57:43.969Z,100.00
2023-03-30T05:00:12.300Z,100.00
2023-03-30T05:02:39.250Z,100.00
2023-03-30T05:05:06.152Z,100.00
2023-03-30T05:07:32.813Z,100.00
2023-03-30T05:09:59.554Z,100.00
2023-03-30T05:12:26.226Z,100.00
2023-03-30T05:14:52.979Z,100.00
2023-03-30T05:17:19.749Z,100.00
2023-03-30T05:19:46.838Z,100.00
2023-03-30T05:22:14.474Z,100.00
2023-03-30T05:24:41.413Z,100.00
2023-03-30T05:27:08.124Z,100.00
2023-03-30T05:29:34.733Z,100.00
2023-03-30T05:32:01.497Z,100.00
2023-03-30T05:34:28.403Z,100.00
2023-03-30T05:36:55.498Z,100.00
2023-03-30T05:39:23.363Z,100.00
2023-03-30T05:41:50.109Z,100.00
2023-03-30T05:44:16.931Z,100.00
2023-03-30T05:46:43.562Z,100.00
2023-03-30T05:49:10.483Z,100.00
2023-03-30T05:51:37.320Z,100.00
2023-03-30T05:54:04.187Z,100.00
2023-03-30T05:56:31.071Z,100.00
2023-03-30T05:58:57.884Z,100.00
2023-03-30T06:01:26.317Z,100.00
2023-03-30T06:03:53.337Z,100.00
2023-03-30T06:06:20.342Z,100.00
2023-03-30T06:08:47.206Z,100.00
2023-03-30T06:11:14.156Z,100.00
2023-03-30T06:13:41.162Z,100.00
2023-03-30T06:16:08.668Z,100.00
2023-03-30T06:18:35.274Z,100.00
2023-03-30T06:21:03.207Z,100.00
2023-03-30T06:23:30.011Z,100.00
2023-03-30T06:25:57.784Z,100.00
2023-03-30T06:28:24.453Z,100.00
2023-03-30T06:30:51.577Z,100.00
2023-03-30T06:33:19.236Z,100.00
2023-03-30T06:35:47.682Z,100.00
2023-03-30T06:38:15.389Z,100.00
2023-03-30T06:40:42.494Z,100.00
2023-03-30T06:43:16.422Z,100.00
2023-03-30T06:45:44.187Z,100.00
2023-03-30T06:48:10.985Z,100.00
2023-03-30T06:50:38.853Z,100.00
2023-03-30T06:53:05.935Z,100.00
2023-03-30T06:55:33.202Z,100.00
2023-03-30T06:57:59.918Z,100.00
2023-03-30T07:00:26.966Z,100.00
2023-03-30T07:02:53.805Z,100.00
2023-03-30T07:05:24.834Z,97.00
2023-03-30T07:07:52.656Z,90.66
2023-03-30T07:10:19.320Z,91.27
2023-03-30T07:12:46.008Z,92.26
2023-03-30T07:15:13.848Z,87.51
2023-03-30T07:17:40.655Z,89.91
2023-03-30T07:20:09.331Z,84.54
2023-03-30T07:22:36.464Z,83.38
2023-03-30T07:25:04.557Z,80.00
2023-03-30T07:27:31.357Z,81.28
2023-03-30T07:30:07.251Z,84.29
2023-03-30T07:32:40.993Z,81.64
2023-03-30T07:35:09.198Z,76.92
2023-03-30T07:37:37.802Z,74.38
2023-03-30T07:40:07.532Z,72.35
2023-03-30T07:42:34.387Z,71.25
2023-03-30T07:45:01.020Z,69.22
2023-03-30T07:47:27.965Z,66.55
2023-03-30T07:49:54.652Z,68.31
2023-03-30T07:52:21.369Z,67.73
2023-03-30T07:54:48.177Z,68.85
2023-03-30T07:57:15.047Z,67.80
2023-03-30T07:59:41.798Z,66.88
2023-03-30T08:02:12.294Z,65.88
2023-03-30T08:04:39.190Z,61.73
2023-03-30T08:07:06.102Z,59.92
2023-03-30T08:09:33.505Z,59.46
2023-03-30T08:12:00.812Z,58.29
2023-03-30T08:14:27.756Z,57.53
2023-03-30T08:16:54.812Z,56.56
2023-03-30T08:19:23.904Z,56.46
2023-03-30T08:21:51.112Z,55.64
2023-03-30T08:24:17.797Z,55.33
2023-03-30T08:26:44.410Z,56.32
2023-03-30T08:29:11.526Z,56.18
2023-03-30T08:31:38.422Z,54.83
2023-03-30T08:34:06.505Z,53.60
2023-03-30T08:36:33.570Z,53.42
2023-03-30T08:39:00.386Z,51.90
2023-03-30T08:41:29.754Z,50.85
2023-03-30T08:44:02.623Z,52.97
2023-03-30T08:46:30.521Z,51.68
2023-03-30T08:49:01.202Z,52.46
2023-03-30T08:51:30.630Z,52.19
2023-03-30T08:54:03.635Z,52.28
2023-03-30T08:56:41.838Z,52.81
2023-03-30T08:59:36.747Z,51.89
2023-03-30T09:02:18.885Z,53.45
2023-03-30T09:05:04.763Z,53.56
2023-03-30T09:07:36.435Z,52.36
2023-03-30T09:10:04.456Z,51.74
2023-03-30T09:12:50.943Z,50.51
2023-03-30T09:15:22.848Z,49.93
2023-03-30T09:18:12.650Z,48.60
2023-03-30T09:20:44.211Z,47.22
2023-03-30T09:23:15.651Z,46.57
2023-03-30T09:25:46.531Z,46.12
2023-03-30T09:28:27.293Z,48.35
2023-03-30T09:31:00.606Z,49.54
2023-03-30T09:34:09.265Z,47.50
2023-03-30T09:36:44.512Z,48.24
2023-03-30T09:39:22.280Z,47.31
2023-03-30T09:42:06.643Z,45.59
2023-03-30T09:44:41.876Z,46.46
2023-03-30T09:47:36.868Z,46.81
2023-03-30T09:50:27.022Z,44.18
2023-03-30T09:52:56.658Z,44.22
2023-03-30T09:55:30.130Z,43.82
2023-03-30T09:58:12.126Z,43.80
2023-03-30T10:00:39.479Z,43.65
2023-03-30T10:03:08.399Z,43.60
2023-03-30T10:05:37.598Z,44.57
2023-03-30T10:08:07.351Z,43.76
2023-03-30T10:10:41.153Z,43.77
2023-03-30T10:13:14.271Z,43.25
2023-03-30T10:15:46.493Z,43.29
2023-03-30T10:18:19.593Z,44.01
2023-03-30T10:20:55.261Z,46.84
2023-03-30T10:23:24.705Z,46.70
2023-03-30T10:25:52.203Z,46.50
2023-03-30T10:28:30.874Z,46.25
2023-03-30T10:31:01.206Z,44.29
2023-03-30T10:33:30.061Z,43.99
2023-03-30T10:36:00.998Z,43.14
2023-03-30T10:38:33.202Z,44.78
2023-03-30T10:41:12.986Z,42.21
2023-03-30T10:43:42.058Z,42.52
2023-03-30T10:46:20.139Z,41.18
2023-03-30T10:49:09.196Z,43.40
2023-03-30T10:52:05.554Z,43.07
2023-03-30T10:54:53.734Z,43.97
2023-03-30T10:57:26.106Z,42.04
2023-03-30T11:00:03.745Z,43.15
2023-03-30T11:02:56.960Z,44.13
2023-03-30T11:05:33.130Z,43.28
2023-03-30T11:08:06.349Z,44.48
2023-03-30T11:10:36.006Z,44.26
2023-03-30T11:13:06.559Z,42.63
2023-03-30T11:15:58.891Z,41.42
2023-03-30T11:18:41.492Z,41.92
2023-03-30T11:21:16.504Z,42.49
2023-03-30T11:23:55.298Z,42.41
2023-03-30T11:26:50.899Z,44.23
2023-03-30T11:29:41.911Z,44.04
2023-03-30T11:32:36.487Z,44.09
2023-03-30T11:35:15.202Z,43.03
2023-03-30T11:37:49.930Z,43.02
2023-03-30T11:40:29.765Z,43.29
2023-03-30T11:42:56.498Z,41.86
2023-03-30T11:45:28.983Z,43.57
2023-03-30T11:48:22.985Z,41.83
2023-03-30T11:51:00.758Z,42.23
2023-03-30T11:53:46.250Z,42.22
2023-03-30T11:56:46.871Z,42.12
2023-03-30T11:59:32.881Z,41.52
2023-03-30T12:02:08.824Z,41.72
2023-03-30T12:04:45.495Z,41.82
2023-03-30T12:07:27.548Z,44.86
2023-03-30T12:09:58.116Z,42.86
2023-03-30T12:12:34.617Z,41.56
2023-03-30T12:15:27.285Z,42.27
2023-03-30T12:18:14.552Z,41.62
2023-03-30T12:20:47.639Z,40.55
2023-03-30T12:23:21.519Z,39.35
2023-03-30T12:26:22.070Z,39.55
2023-03-30T12:29:47.982Z,38.31
2023-03-30T12:31:59.305Z,38.83
2023-03-30T12:34:28.574Z,38.58
2023-03-30T12:37:00.750Z,38.41
2023-03-30T12:39:50.329Z,36.77
2023-03-30T12:42:28.181Z,37.79
2023-03-30T12:45:07.104Z,39.67
2023-03-30T12:47:36.842Z,36.91
2023-03-30T12:50:31.207Z,37.70
2023-03-30T12:53:24.095Z,38.78
2023-03-30T12:56:12.524Z,38.30
2023-03-30T12:58:59.329Z,38.81
2023-03-30T13:02:03.578Z,38.62
2023-03-30T13:04:37.834Z,38.29
2023-03-30T13:07:06.125Z,37.13
2023-03-30T13:09:55.954Z,38.05
2023-03-30T13:12:41.980Z,38.34
2023-03-30T13:15:39.580Z,39.00
2023-03-30T13:18:09.410Z,39.01
2023-03-30T13:20:48.654Z,38.86
2023-03-30T13:23:15.486Z,38.65
2023-03-30T13:25:51.383Z,37.83
2023-03-30T13:28:56.002Z,38.36
2023-03-30T13:31:37.678Z,38.00
2023-03-30T13:34:11.436Z,38.61
2023-03-30T13:36:51.479Z,37.10
2023-03-30T13:39:42.531Z,36.00
2023-03-30T13:42:18.245Z,36.17
2023-03-30T13:44:57.250Z,35.96
2023-03-30T13:47:36.401Z,35.51
2023-03-30T13:50:16.838Z,35.51
2023-03-30T13:52:46.374Z,35.35
2023-03-30T13:55:39.506Z,35.27
2023-03-30T13:58:14.651Z,35.66
2023-03-30T14:00:50.454Z,35.96
2023-03-30T14:03:34.967Z,36.03
2023-03-30T14:06:20.979Z,36.79
2023-03-30T14:08:50.681Z,35.01
2023-03-30T14:11:23.561Z,35.21
2023-03-30T14:13:52.465Z,35.11
2023-03-30T14:16:25.704Z,35.58
2023-03-30T14:19:13.880Z,36.19
2023-03-30T14:21:45.143Z,37.05
2023-03-30T14:24:36.849Z,35.57
2023-03-30T14:27:15.518Z,35.36
2023-03-30T14:29:46.630Z,35.47
2023-03-30T14:32:16.053Z,35.21
2023-03-30T14:34:50.567Z,34.74
2023-03-30T14:37:21.000Z,35.61
2023-03-30T14:39:54.559Z,35.87
2023-03-30T14:42:22.509Z,35.56
2023-03-30T14:44:52.988Z,34.76
2023-03-30T14:47:23.008Z,34.63
2023-03-30T14:49:53.324Z,34.93
2023-03-30T14:52:41.526Z,35.84
2023-03-30T14:55:19.043Z,34.33
2023-03-30T14:57:46.825Z,34.67
2023-03-30T15:00:19.789Z,34.61
2023-03-30T15:03:01.453Z,34.73
2023-03-30T15:05:37.167Z,33.98
2023-03-30T15:08:04.779Z,33.77
2023-03-30T15:10:45.966Z,34.38
2023-03-30T15:13:29.042Z,33.00
2023-03-30T15:15:59.717Z,34.18
2023-03-30T15:18:29.177Z,34.63
2023-03-30T15:20:56.680Z,33.44
2023-03-30T15:23:26.220Z,34.02
2023-03-30T15:26:01.539Z,33.75
2023-03-30T15:28:32.853Z,34.01
2023-03-30T15:30:59.963Z,34.07
2023-03-30T15:33:36.823Z,33.85
2023-03-30T15:36:07.814Z,34.06
2023-03-30T15:38:42.896Z,33.78
2023-03-30T15:41:15.621Z,34.14
2023-03-30T15:44:09.168Z,34.18
2023-03-30T15:46:37.078Z,34.15
2023-03-30T15:49:05.435Z,33.94
2023-03-30T15:51:38.793Z,34.39
2023-03-30T15:54:12.990Z,33.77
2023-03-30T15:56:48.162Z,34.39
2023-03-30T15:59:18.714Z,34.94
2023-03-30T16:01:53.417Z,34.82
2023-03-30T16:04:22.571Z,35.42
2023-03-30T16:06:55.497Z,35.46
2023-03-30T16:09:22.911Z,35.56
2023-03-30T16:11:52.602Z,35.85
2023-03-30T16:14:20.678Z,35.99
2023-03-30T16:16:48.738Z,36.09
2023-03-30T16:19:18.504Z,36.60
2023-03-30T16:21:45.765Z,36.70
2023-03-30T16:24:12.654Z,37.04
2023-03-30T16:26:39.335Z,36.97
2023-03-30T16:29:16.119Z,37.32
2023-03-30T16:31:42.835Z,37.09
2023-03-30T16:34:09.584Z,37.15
2023-03-30T16:36:36.278Z,37.37
2023-03-30T16:39:05.655Z,37.32
2023-03-30T16:41:32.451Z,37.71
2023-03-30T16:43:59.150Z,37.52
2023-03-30T16:46:26.020Z,37.29
2023-03-30T16:48:52.679Z,37.40
2023-03-30T16:51:20.160Z,37.95
2023-03-30T16:53:47.704Z,37.72
2023-03-30T16:56:19.131Z,37.99
2023-03-30T16:58:46.787Z,37.93
2023-03-30T17:01:18.772Z,38.45
2023-03-30T17:03:45.792Z,38.39
2023-03-30T17:06:14.276Z,40.02
2023-03-30T17:08:42.943Z,40.01
2023-03-30T17:11:10.952Z,39.59
2023-03-30T17:13:37.702Z,39.36
2023-03-30T17:16:04.642Z,39.25
2023-03-30T17:18:31.960Z,39.70
2023-03-30T17:21:02.232Z,39.89
2023-03-30T17:23:32.248Z,40.61
2023-03-30T17:26:01.155Z,40.25
2023-03-30T17:28:33.405Z,40.14
2023-03-30T17:31:01.294Z,40.49
2023-03-30T17:33:28.731Z,39.95
2023-03-30T17:36:05.338Z,40.31
2023-03-30T17:38:33.097Z,40.17
2023-03-30T17:41:00.007Z,40.50
2023-03-30T17:43:26.836Z,40.38
2023-03-30T17:45:53.658Z,41.50
2023-03-30T17:48:22.103Z,40.35
2023-03-30T17:50:50.602Z,40.55
2023-03-30T17:53:19.862Z,41.05
2023-03-30T17:55:48.717Z,41.13
2023-03-30T17:58:26.318Z,41.32
2023-03-30T18:00:53.880Z,41.28
2023-03-30T18:03:22.734Z,41.14
2023-03-30T18:05:50.867Z,41.40
2023-03-30T18:08:21.506Z,40.86
2023-03-30T18:10:51.797Z,41.21
2023-03-30T18:13:22.560Z,41.04
2023-03-30T18:15:54.990Z,41.58
2023-03-30T18:18:25.132Z,41.78
2023-03-30T18:20:54.581Z,41.67
2023-03-30T18:23:21.449Z,41.51
2023-03-30T18:25:49.234Z,41.71
2023-03-30T18:28:24.636Z,41.52
2023-03-30T18:30:57.574Z,41.40
2023-03-30T18:33:25.307Z,41.23
2023-03-30T18:35:53.573Z,41.26
2023-03-30T18:38:22.097Z,41.05
2023-03-30T18:40:53.802Z,41.18
2023-03-30T18:43:20.691Z,40.80
2023-03-30T18:45:49.666Z,40.78
2023-03-30T18:48:21.718Z,40.40
2023-03-30T18:50:53.488Z,40.38
2023-03-30T18:53:22.646Z,40.42
2023-03-30T18:55:51.788Z,40.16
2023-03-30T18:58:23.324Z,40.16
2023-03-30T19:00:52.013Z,39.64
2023-03-30T19:03:20.211Z,39.30
2023-03-30T19:05:47.863Z,39.99
2023-03-30T19:08:20.231Z,39.77
2023-03-30T19:10:50.004Z,39.73
2023-03-30T19:13:19.057Z,40.41
2023-03-30T19:15:47.138Z,40.95
2023-03-30T19:18:15.304Z,41.09
2023-03-30T19:20:42.579Z,41.31
2023-03-30T19:23:15.420Z,41.27
2023-03-30T19:25:43.566Z,41.53
2023-03-30T19:28:12.061Z,40.79
2023-03-30T19:30:39.822Z,41.23
2023-03-30T19:33:10.121Z,41.30
2023-03-30T19:35:39.254Z,41.52
2023-03-30T19:38:06.254Z,41.09
2023-03-30T19:40:33.391Z,41.30
2023-03-30T19:43:00.132Z,41.09
2023-03-30T19:45:27.473Z,41.40
2023-03-30T19:47:54.493Z,41.80
2023-03-30T19:50:26.950Z,41.71
2023-03-30T19:52:55.661Z,41.42
2023-03-30T19:55:22.761Z,42.18
2023-03-30T19:57:50.034Z,41.79
2023-03-30T20:00:18.557Z,42.27
2023-03-30T20:02:50.931Z,42.17
2023-03-30T20:05:19.785Z,42.01
2023-03-30T20:07:47.477Z,42.16
2023-03-30T20:10:19.143Z,45.05
2023-03-30T20:12:46.974Z,46.04
2023-03-30T20:15:14.474Z,47.02
2023-03-30T20:17:42.252Z,47.75
2023-03-30T20:20:12.923Z,48.30
2023-03-30T20:22:44.789Z,50.18
2023-03-30T20:25:14.322Z,49.41
2023-03-30T20:27:41.734Z,49.62
2023-03-30T20:30:10.299Z,50.12
2023-03-30T20:32:37.442Z,50.78
2023-03-30T20:35:05.135Z,50.91
2023-03-30T20:37:31.945Z,51.28
2023-03-30T20:40:06.512Z,50.63
2023-03-30T20:42:33.228Z,50.07
2023-03-30T20:45:01.349Z,49.88
2023-03-30T20:47:30.111Z,49.97
2023-03-30T20:49:59.256Z,52.01
2023-03-30T20:52:27.174Z,50.71
2023-03-30T20:54:54.399Z,49.77
2023-03-30T20:57:22.002Z,50.17
2023-03-30T20:59:49.805Z,51.15
2023-03-30T21:02:19.136Z,49.71
2023-03-30T21:04:46.408Z,50.70
2023-03-30T21:07:13.200Z,49.89
2023-03-30T21:09:40.599Z,51.31
2023-03-30T21:12:08.691Z,50.10
2023-03-30T21:14:35.607Z,50.48
2023-03-30T21:17:02.410Z,50.13
2023-03-30T21:19:29.074Z,50.22
2023-03-30T21:21:55.842Z,50.11
2023-03-30T21:24:22.569Z,50.42
2023-03-30T21:26:49.307Z,50.42
2023-03-30T21:29:16.047Z,51.40
2023-03-30T21:31:42.858Z,52.68
2023-03-30T21:34:10.751Z,50.92
2023-03-30T21:36:38.078Z,51.15
2023-03-30T21:39:05.118Z,51.13
2023-03-30T21:41:31.968Z,50.56
2023-03-30T21:43:58.617Z,50.82
2023-03-30T21:46:28.872Z,51.00
2023-03-30T21:48:55.619Z,53.85
2023-03-30T21:51:28.164Z,52.41
2023-03-30T21:53:55.893Z,51.55
2023-03-30T21:56:26.018Z,51.02
2023-03-30T21:58:53.807Z,50.79
2023-03-30T22:01:24.042Z,51.02
2023-03-30T22:03:51.794Z,50.88
2023-03-30T22:06:19.608Z,53.13
2023-03-30T22:08:46.603Z,52.43
2023-03-30T22:11:19.185Z,51.73
2023-03-30T22:13:48.474Z,52.56
2023-03-30T22:16:22.398Z,52.79
2023-03-30T22:18:49.992Z,53.54
2023-03-30T22:21:21.779Z,53.75
2023-03-30T22:23:48.360Z,54.55
2023-03-30T22:26:15.576Z,54.48
2023-03-30T22:28:42.838Z,55.37
2023-03-30T22:31:11.658Z,54.52
2023-03-30T22:33:38.356Z,57.81
2023-03-30T22:36:07.516Z,54.60
2023-03-30T22:38:34.403Z,55.27
2023-03-30T22:41:07.923Z,53.69
2023-03-30T22:43:35.918Z,53.68
2023-03-30T22:46:03.576Z,53.12
2023-03-30T22:48:30.384Z,53.07
2023-03-30T22:51:02.190Z,53.38
2023-03-30T22:53:32.683Z,53.44
2023-03-30T22:56:00.032Z,53.45
2023-03-30T22:58:27.201Z,53.47
2023-03-30T23:01:01.068Z,54.14
2023-03-30T23:03:28.319Z,54.58
2023-03-30T23:05:56.059Z,53.87
2023-03-30T23:08:24.012Z,55.70
2023-03-30T23:10:53.909Z,55.15
2023-03-30T23:13:20.487Z,55.20
2023-03-30T23:15:48.574Z,55.24
2023-03-30T23:18:15.874Z,54.70
2023-03-30T23:20:46.750Z,55.84
2023-03-30T23:23:14.665Z,55.55
2023-03-30T23:25:50.167Z,55.86
2023-03-30T23:28:17.909Z,56.32
2023-03-30T23:30:45.043Z,56.90
2023-03-30T23:33:12.141Z,57.70
2023-03-30T23:35:38.992Z,57.39
2023-03-30T23:38:05.657Z,60.27
2023-03-30T23:40:32.279Z,60.73
2023-03-30T23:42:58.852Z,59.43
2023-03-30T23:45:25.492Z,58.63
2023-03-30T23:47:52.225Z,58.33
2023-03-30T23:50:18.865Z,59.27
2023-03-30T23:52:46.711Z,64.24
2023-03-30T23:55:13.347Z,61.36
2023-03-30T23:57:40.164Z,60.26
